createdAt,value
2018-12-09T00:03:58.420Z,1.90
2018-12-09T00:08:54.222Z,3.73
2018-12-09T00:13:50.122Z,0.80
2018-12-09T00:18:46.053Z,1.07
2018-12-09T00:23:41.863Z,1.00
2018-12-09T00:28:37.650Z,1.53
2018-12-09T00:33:33.470Z,1.50
2018-12-09T00:38:29.273Z,2.50
2018-12-09T00:43:25.024Z,1.00
2018-12-09T00:48:20.805Z,1.30
2018-12-09T00:53:16.598Z,1.00
2018-12-09T00:58:12.434Z,1.20
2018-12-09T01:03:08.329Z,1.13
2018-12-09T01:08:04.199Z,1.20
2018-12-09T01:13:00.084Z,2.43
2018-12-09T01:17:55.863Z,2.00
2018-12-09T01:22:51.667Z,1.17
2018-12-09T01:27:47.446Z,1.13
2018-12-09T01:32:43.457Z,1.40
2018-12-09T01:37:39.256Z,0.90
2018-12-09T01:42:35.090Z,1.80
2018-12-09T01:47:30.928Z,0.60
2018-12-09T01:52:26.879Z,0.73
2018-12-09T01:57:22.661Z,0.50
2018-12-09T02:02:18.907Z,0.30
2018-12-09T02:07:14.669Z,0.50
2018-12-09T02:12:10.495Z,0.93
2018-12-09T02:17:06.315Z,3.90
2018-12-09T02:22:02.220Z,1.30
2018-12-09T02:26:58.034Z,2.83
2018-12-09T02:31:53.831Z,3.77
2018-12-09T02:36:50.190Z,1.70
2018-12-09T02:41:46.049Z,2.37
2018-12-09T02:46:42.052Z,1.33
2018-12-09T02:51:37.959Z,2.73
2018-12-09T02:56:33.755Z,4.53
2018-12-09T03:01:29.577Z,6.63
2018-12-09T03:06:25.373Z,5.40
2018-12-09T03:11:21.484Z,3.30
2018-12-09T03:16:17.292Z,4.67
2018-12-09T03:21:13.103Z,4.90
2018-12-09T03:26:08.902Z,8.00
2018-12-09T03:31:04.749Z,4.53
2018-12-09T03:36:00.574Z,4.83
2018-12-09T03:40:56.335Z,3.20
2018-12-09T03:45:52.094Z,3.93
2018-12-09T03:50:47.826Z,2.93
2018-12-09T03:55:43.640Z,3.20
2018-12-09T04:00:39.557Z,2.87
2018-12-09T04:05:35.367Z,3.70
2018-12-09T04:10:31.471Z,3.17
2018-12-09T04:15:27.486Z,4.73
2018-12-09T04:20:23.223Z,2.53
2018-12-09T04:25:18.968Z,4.53
2018-12-09T04:30:14.711Z,4.10
2018-12-09T04:35:10.914Z,5.47
2018-12-09T04:40:08.624Z,4.63
2018-12-09T04:45:04.485Z,4.93
2018-12-09T04:50:00.389Z,4.73
2018-12-09T04:54:56.387Z,1.33
2018-12-09T04:59:54.169Z,3.03
2018-12-09T05:04:49.958Z,2.93
2018-12-09T05:09:46.186Z,4.33
2018-12-09T05:14:41.935Z,5.47
2018-12-09T05:19:37.711Z,3.80
2018-12-09T05:24:33.481Z,7.17
2018-12-09T05:29:29.225Z,5.27
2018-12-09T05:34:25.527Z,6.07
2018-12-09T05:39:21.305Z,3.80
2018-12-09T05:44:17.102Z,5.63
2018-12-09T05:49:13.227Z,4.20
2018-12-09T05:54:08.991Z,10.20
2018-12-09T05:59:05.173Z,8.20
2018-12-09T06:04:00.947Z,9.93
2018-12-09T06:08:56.982Z,5.33
2018-12-09T06:13:52.714Z,10.30
2018-12-09T06:18:48.486Z,9.67
2018-12-09T06:23:44.685Z,6.43
2018-12-09T06:28:40.507Z,5.37
2018-12-09T06:33:36.262Z,5.00
2018-12-09T06:38:32.042Z,2.20
2018-12-09T06:43:27.789Z,4.83
2018-12-09T06:48:24.190Z,4.40
2018-12-09T06:53:19.937Z,2.50
2018-12-09T06:58:15.722Z,5.30
2018-12-09T07:03:11.823Z,3.17
2018-12-09T07:08:07.588Z,4.47
2018-12-09T07:13:03.382Z,2.77
2018-12-09T07:17:59.167Z,5.80
2018-12-09T07:22:54.952Z,5.43
2018-12-09T07:27:50.712Z,4.70
2018-12-09T07:32:46.479Z,3.37
2018-12-09T07:37:42.213Z,5.07
2018-12-09T07:42:38.034Z,5.00
2018-12-09T07:47:33.774Z,4.33
2018-12-09T07:52:29.761Z,3.00
2018-12-09T07:57:25.540Z,3.63
2018-12-09T08:02:21.439Z,2.77
2018-12-09T08:07:17.213Z,7.83
2018-12-09T08:12:13.029Z,7.30
2018-12-09T08:17:08.805Z,4.27
2018-12-09T08:22:04.563Z,6.57
2018-12-09T08:27:00.296Z,5.13
2018-12-09T08:31:56.371Z,5.23
2018-12-09T08:36:52.141Z,4.60
2018-12-09T08:41:47.940Z,5.50
2018-12-09T08:46:43.712Z,5.10
2018-12-09T08:51:39.476Z,5.00
2018-12-09T08:56:35.270Z,7.97
2018-12-09T09:01:31.033Z,6.87
2018-12-09T09:06:26.954Z,2.53
2018-12-09T09:11:22.737Z,3.93
2018-12-09T09:16:18.474Z,4.93
2018-12-09T09:21:14.265Z,2.97
2018-12-09T09:26:10.018Z,2.27
2018-12-09T09:31:05.792Z,5.03
2018-12-09T09:36:01.568Z,2.47
2018-12-09T09:40:57.368Z,4.10
2018-12-09T09:45:53.137Z,4.30
2018-12-09T09:50:48.888Z,2.87
2018-12-09T09:55:44.697Z,4.87
2018-12-09T10:00:40.443Z,3.33
2018-12-09T10:05:36.242Z,3.57
2018-12-09T10:10:32.024Z,3.33
2018-12-09T10:15:27.781Z,3.60
2018-12-09T10:20:23.584Z,2.87
2018-12-09T10:25:19.374Z,2.20
2018-12-09T10:30:15.178Z,2.73
2018-12-09T10:35:11.147Z,2.13
2018-12-09T10:40:07.015Z,3.47
2018-12-09T10:45:03.495Z,5.77
2018-12-09T10:50:06.502Z,3.13
2018-12-09T10:55:02.413Z,2.70
2018-12-09T10:59:58.169Z,4.90
2018-12-09T11:04:54.580Z,5.50
2018-12-09T11:09:50.358Z,4.77
2018-12-09T11:14:46.144Z,3.67
2018-12-09T11:19:42.066Z,3.77
2018-12-09T11:24:38.104Z,4.00
2018-12-09T11:29:33.910Z,4.53
2018-12-09T11:34:30.236Z,4.50
2018-12-09T11:39:26.286Z,5.87
2018-12-09T11:44:23.146Z,3.67
2018-12-09T11:49:20.049Z,4.63
2018-12-09T11:54:16.874Z,3.60
2018-12-09T11:59:12.969Z,3.53
2018-12-09T12:04:08.788Z,3.57
2018-12-09T12:09:05.484Z,3.03
2018-12-09T12:14:02.257Z,3.07
2018-12-09T12:18:58.076Z,2.83
2018-12-09T12:23:53.818Z,2.30
2018-12-09T12:28:49.832Z,2.53
2018-12-09T12:33:45.685Z,3.60
2018-12-09T12:38:42.508Z,1.97
2018-12-09T12:43:38.281Z,3.97
2018-12-09T12:48:34.141Z,3.33
2018-12-09T12:53:30.052Z,2.73
2018-12-09T12:58:25.837Z,5.03
2018-12-09T13:03:21.722Z,4.90
2018-12-09T13:08:17.749Z,6.13
2018-12-09T13:13:13.564Z,4.67
2018-12-09T13:18:09.376Z,6.83
2018-12-09T13:23:05.166Z,4.30
2018-12-09T13:33:43.697Z,5.87
2018-12-09T13:38:39.628Z,6.27
2018-12-09T13:43:36.337Z,6.17
2018-12-09T13:48:34.011Z,6.73
2018-12-09T13:53:30.935Z,6.23
2018-12-09T13:58:27.516Z,8.03
2018-12-09T14:03:23.826Z,7.77
2018-12-09T14:08:20.444Z,4.60
2018-12-09T14:13:17.396Z,6.77
2018-12-09T14:18:13.911Z,5.30
2018-12-09T14:23:09.754Z,5.83
2018-12-09T14:28:05.704Z,6.70
2018-12-09T14:33:01.610Z,4.33
2018-12-09T14:37:58.646Z,2.33
2018-12-09T14:42:54.455Z,5.23
2018-12-09T14:47:50.374Z,5.10
2018-12-09T14:52:46.231Z,6.87
2018-12-09T14:57:42.117Z,4.77
2018-12-09T15:02:39.744Z,5.63
2018-12-09T15:07:35.529Z,4.73
2018-12-09T15:12:31.718Z,5.73
2018-12-09T15:17:27.474Z,4.67
2018-12-09T15:22:23.280Z,4.53
2018-12-09T15:27:19.101Z,5.77
2018-12-09T15:32:14.901Z,5.03
2018-12-09T15:37:10.687Z,4.10
2018-12-09T15:42:06.537Z,3.23
2018-12-09T15:47:02.460Z,3.80
2018-12-09T15:51:58.322Z,3.90
2018-12-09T15:56:54.315Z,2.60
2018-12-09T16:01:50.338Z,4.67
2018-12-09T16:06:47.629Z,2.67
2018-12-09T16:11:43.664Z,4.93
2018-12-09T16:16:39.744Z,5.93
2018-12-09T16:21:35.655Z,3.90
2018-12-09T16:26:32.084Z,2.73
2018-12-09T16:31:27.995Z,2.20
2018-12-09T16:36:24.517Z,2.20
2018-12-09T16:41:20.321Z,1.97
2018-12-09T16:46:16.489Z,4.40
2018-12-09T16:51:12.284Z,3.27
2018-12-09T16:56:08.055Z,2.93
2018-12-09T17:01:03.840Z,1.23
2018-12-09T17:05:59.603Z,2.13
2018-12-09T17:10:55.372Z,5.90
2018-12-09T17:15:51.156Z,4.27
2018-12-09T17:20:46.961Z,2.20
2018-12-09T17:25:44.176Z,3.10
2018-12-09T17:30:41.185Z,2.87
2018-12-09T17:35:38.186Z,5.33
2018-12-09T17:40:34.127Z,3.10
2018-12-09T17:45:30.872Z,2.70
2018-12-09T17:50:26.658Z,2.53
2018-12-09T17:55:22.474Z,2.30
2018-12-09T18:00:18.379Z,2.40
2018-12-09T18:05:14.184Z,2.63
2018-12-09T18:10:09.969Z,2.13
2018-12-09T18:15:07.807Z,2.77
2018-12-09T18:20:03.580Z,1.80
2018-12-09T18:24:59.425Z,3.60
2018-12-09T18:29:55.222Z,2.50
2018-12-09T18:34:51.074Z,2.97
2018-12-09T18:39:47.031Z,3.20
2018-12-09T18:44:42.847Z,3.00
2018-12-09T18:49:38.641Z,1.93
2018-12-09T18:54:35.216Z,1.10
2018-12-09T18:59:30.994Z,2.87
2018-12-09T19:04:26.953Z,5.80
2018-12-09T19:09:23.245Z,3.40
2018-12-09T19:14:19.110Z,3.77
2018-12-09T19:19:15.085Z,2.97
2018-12-09T19:24:11.434Z,4.07
2018-12-09T19:29:07.359Z,3.17
2018-12-09T19:34:03.552Z,2.90
2018-12-09T19:38:59.365Z,2.87
2018-12-09T19:43:55.770Z,2.03
2018-12-09T19:48:52.482Z,2.40
2018-12-09T19:53:48.288Z,2.17
2018-12-09T19:58:44.087Z,2.73
2018-12-09T20:03:39.914Z,2.23
2018-12-09T20:08:35.811Z,3.23
2018-12-09T20:13:31.644Z,2.63
2018-12-09T20:18:28.166Z,4.20
2018-12-09T20:23:23.979Z,4.87
2018-12-09T20:28:20.128Z,3.70
2018-12-09T20:33:16.441Z,2.50
2018-12-09T20:38:13.050Z,3.20
2018-12-09T20:43:08.850Z,4.83
2018-12-09T20:48:13.059Z,2.90
2018-12-09T20:53:03.323Z,3.73
2018-12-09T20:57:59.117Z,1.80
2018-12-09T21:02:54.888Z,5.10
2018-12-09T21:07:50.704Z,2.83
2018-12-09T21:12:46.550Z,4.50
2018-12-09T21:17:43.212Z,2.10
2018-12-09T21:22:38.977Z,2.83
2018-12-09T21:27:34.771Z,4.37
2018-12-09T21:32:30.574Z,2.33
2018-12-09T21:37:26.350Z,2.37
2018-12-09T21:42:22.084Z,3.10
2018-12-09T21:47:17.875Z,4.03
2018-12-09T21:52:14.556Z,3.67
2018-12-09T21:57:10.318Z,4.33
2018-12-09T22:02:23.394Z,4.10
2018-12-09T22:07:19.858Z,3.17
2018-12-09T22:12:15.963Z,5.00
2018-12-09T22:17:11.833Z,2.93
2018-12-09T22:22:07.578Z,3.90
2018-12-09T22:27:03.329Z,4.10
2018-12-09T22:31:59.106Z,3.13
2018-12-09T22:36:55.160Z,2.63
2018-12-09T22:41:51.149Z,4.67
2018-12-09T22:46:47.876Z,5.50
2018-12-09T22:51:44.500Z,6.00
2018-12-09T22:56:40.791Z,6.97
2018-12-09T23:01:46.608Z,4.30
2018-12-09T23:06:42.418Z,5.33
2018-12-09T23:11:38.194Z,5.03
2018-12-09T23:16:34.048Z,6.20
2018-12-09T23:21:29.858Z,7.60
2018-12-09T23:26:26.564Z,10.23
2018-12-09T23:31:22.378Z,4.47
2018-12-09T23:36:18.210Z,5.27
2018-12-09T23:41:14.120Z,5.73
2018-12-09T23:46:09.958Z,3.83
2018-12-09T23:51:05.736Z,2.63
2018-12-09T23:56:01.529Z,6.63
